createdAt,value
2018-08-03T00:00:01.053Z,24.00
2018-08-03T00:02:28.944Z,23.90
2018-08-03T00:04:56.808Z,23.90
2018-08-03T00:07:30.601Z,23.90
2018-08-03T00:09:58.373Z,24.00
2018-08-03T00:12:26.288Z,23.90
2018-08-03T00:14:54.101Z,23.80
2018-08-03T00:17:21.876Z,23.80
2018-08-03T00:19:49.777Z,23.80
2018-08-03T00:22:17.608Z,23.70
2018-08-03T00:24:45.501Z,23.70
2018-08-03T00:27:13.416Z,23.70
2018-08-03T00:29:41.220Z,23.70
2018-08-03T00:32:09.077Z,23.70
2018-08-03T00:34:36.919Z,23.70
2018-08-03T00:37:04.712Z,23.70
2018-08-03T00:39:32.681Z,23.70
2018-08-03T00:42:00.449Z,23.70
2018-08-03T00:44:28.233Z,23.70
2018-08-03T00:46:56.125Z,23.70
2018-08-03T00:49:24.092Z,23.70
2018-08-03T00:51:51.882Z,23.60
2018-08-03T00:54:19.658Z,23.60
2018-08-03T00:56:47.438Z,23.60
2018-08-03T00:59:15.240Z,23.60
2018-08-03T01:01:44.109Z,23.60
2018-08-03T01:04:12.241Z,23.60
2018-08-03T01:06:40.031Z,23.50
2018-08-03T01:09:09.412Z,23.50
2018-08-03T01:11:37.189Z,23.50
2018-08-03T01:14:05.373Z,23.40
2018-08-03T01:16:37.741Z,23.30
2018-08-03T01:19:08.518Z,23.40
2018-08-03T01:21:36.321Z,23.50
2018-08-03T01:24:04.181Z,23.60
2018-08-03T01:26:32.004Z,23.50
2018-08-03T01:28:59.789Z,23.60
2018-08-03T01:31:27.709Z,23.40
2018-08-03T01:36:29.249Z,23.30
2018-08-03T01:38:57.444Z,23.10
2018-08-03T01:41:25.284Z,23.20
2018-08-03T01:43:53.190Z,23.20
2018-08-03T01:46:21.061Z,23.10
2018-08-03T01:48:49.004Z,23.10
2018-08-03T01:51:16.793Z,23.10
2018-08-03T01:53:44.622Z,23.10
2018-08-03T01:56:12.416Z,23.10
2018-08-03T01:58:40.374Z,23.10
2018-08-03T02:01:08.605Z,23.00
2018-08-03T02:03:36.413Z,23.00
2018-08-03T02:06:05.549Z,23.00
2018-08-03T02:08:33.354Z,23.00
2018-08-03T02:11:01.349Z,23.10
2018-08-03T02:13:29.437Z,23.10
2018-08-03T02:15:57.545Z,23.10
2018-08-03T02:18:25.345Z,23.10
2018-08-03T02:20:53.190Z,23.10
2018-08-03T02:23:20.968Z,23.00
2018-08-03T02:25:48.800Z,23.00
2018-08-03T02:28:16.941Z,22.90
2018-08-03T02:30:45.005Z,22.90
2018-08-03T02:33:12.837Z,22.90
2018-08-03T02:35:40.645Z,22.80
2018-08-03T02:38:08.446Z,22.80
2018-08-03T02:40:41.964Z,22.80
2018-08-03T02:43:10.025Z,22.70
2018-08-03T02:45:37.845Z,22.70
2018-08-03T02:50:44.708Z,22.80
2018-08-03T02:53:12.504Z,22.80
2018-08-03T02:55:52.224Z,22.90
2018-08-03T03:00:48.365Z,22.80
2018-08-03T03:03:16.225Z,22.80
2018-08-03T03:05:44.041Z,22.80
2018-08-03T03:08:11.824Z,22.90
2018-08-03T03:10:39.668Z,22.90
2018-08-03T03:13:07.645Z,22.70
2018-08-03T03:15:35.513Z,22.70
2018-08-03T03:18:03.335Z,22.60
2018-08-03T03:20:31.136Z,22.60
2018-08-03T03:22:58.912Z,22.70
2018-08-03T03:25:26.733Z,22.70
2018-08-03T03:27:54.517Z,22.60
2018-08-03T03:30:22.386Z,22.50
2018-08-03T03:32:50.222Z,22.40
2018-08-03T03:35:17.997Z,22.40
2018-08-03T03:37:45.829Z,22.30
2018-08-03T03:40:13.668Z,22.30
2018-08-03T03:42:41.533Z,22.30
2018-08-03T03:45:09.381Z,22.30
2018-08-03T03:47:37.292Z,22.20
2018-08-03T03:50:05.664Z,22.20
2018-08-03T03:52:33.578Z,22.20
2018-08-03T03:55:01.468Z,22.20
2018-08-03T03:57:29.313Z,22.10
2018-08-03T03:59:57.157Z,22.10
2018-08-03T04:02:24.962Z,22.10
2018-08-03T04:04:52.760Z,22.10
2018-08-03T04:07:20.526Z,22.10
2018-08-03T04:09:48.316Z,22.10
2018-08-03T04:12:16.140Z,22.10
2018-08-03T04:14:43.968Z,22.10
2018-08-03T04:17:11.760Z,22.10
2018-08-03T04:19:39.529Z,22.10
2018-08-03T04:22:07.369Z,22.10
2018-08-03T04:24:35.181Z,22.10
2018-08-03T04:27:03.052Z,22.20
2018-08-03T04:29:30.821Z,22.20
2018-08-03T04:31:58.585Z,22.10
2018-08-03T04:34:26.408Z,22.10
2018-08-03T04:36:54.221Z,22.00
2018-08-03T04:39:21.996Z,22.00
2018-08-03T04:41:49.791Z,22.00
2018-08-03T04:44:17.567Z,22.00
2018-08-03T04:46:45.400Z,22.10
2018-08-03T04:49:13.182Z,22.10
2018-08-03T04:51:40.944Z,22.10
2018-08-03T04:54:08.756Z,22.20
2018-08-03T04:56:36.572Z,22.30
2018-08-03T04:59:04.392Z,22.30
2018-08-03T05:01:32.180Z,22.30
2018-08-03T05:03:59.975Z,22.30
2018-08-03T05:06:27.813Z,22.30
2018-08-03T05:08:55.916Z,22.30
2018-08-03T05:11:23.716Z,22.40
2018-08-03T05:13:51.732Z,22.40
2018-08-03T05:16:19.503Z,22.60
2018-08-03T05:18:47.332Z,22.70
2018-08-03T05:21:15.113Z,22.60
2018-08-03T05:23:42.900Z,22.60
2018-08-03T05:26:10.752Z,22.60
2018-08-03T05:28:47.749Z,22.80
2018-08-03T05:31:21.043Z,22.80
2018-08-03T05:33:49.473Z,22.90
2018-08-03T05:36:17.410Z,22.90
2018-08-03T05:38:45.197Z,22.90
2018-08-03T05:41:12.995Z,22.90
2018-08-03T05:43:40.804Z,23.10
2018-08-03T05:46:08.584Z,23.20
2018-08-03T05:48:36.441Z,23.30
2018-08-03T05:51:04.343Z,23.40
2018-08-03T05:53:32.130Z,23.50
2018-08-03T05:55:59.916Z,23.60
2018-08-03T05:58:27.894Z,23.90
2018-08-03T06:00:55.764Z,24.10
2018-08-03T06:03:23.553Z,24.30
2018-08-03T06:05:51.341Z,24.30
2018-08-03T06:08:25.193Z,24.50
2018-08-03T06:10:59.717Z,24.60
2018-08-03T06:13:28.088Z,25.00
2018-08-03T06:15:55.893Z,25.20
2018-08-03T06:18:31.235Z,25.30
2018-08-03T06:21:04.907Z,25.50
2018-08-03T06:23:33.113Z,25.90
2018-08-03T06:26:00.941Z,26.10
2018-08-03T06:28:28.803Z,26.40
2018-08-03T06:30:56.553Z,26.80
2018-08-03T06:33:24.390Z,26.90
2018-08-03T06:35:52.549Z,27.20
2018-08-03T06:38:20.427Z,27.40
2018-08-03T06:40:48.240Z,27.60
2018-08-03T06:43:16.004Z,27.80
2018-08-03T06:45:43.837Z,28.20
2018-08-03T06:48:13.292Z,28.60
2018-08-03T06:50:41.085Z,28.80
2018-08-03T06:53:08.904Z,29.00
2018-08-03T06:55:36.715Z,29.10
2018-08-03T06:58:04.856Z,29.40
2018-08-03T07:00:32.868Z,29.60
2018-08-03T07:03:00.849Z,29.80
2018-08-03T07:05:28.653Z,30.00
2018-08-03T07:07:56.500Z,30.30
2018-08-03T07:10:24.290Z,30.40
2018-08-03T07:12:58.865Z,30.60
2018-08-03T07:15:33.177Z,30.70
2018-08-03T07:18:07.462Z,30.90
2018-08-03T07:23:34.638Z,31.40
2018-08-03T07:26:08.512Z,31.70
2018-08-03T07:28:41.818Z,31.80
2018-08-03T07:31:16.355Z,32.10
2018-08-03T07:33:50.356Z,32.20
2018-08-03T07:36:23.870Z,32.50
2018-08-03T07:44:46.756Z,33.10
2018-08-03T07:47:21.053Z,33.30
2018-08-03T07:49:49.088Z,33.50
2018-08-03T07:52:16.973Z,33.50
2018-08-03T07:54:55.633Z,33.70
2018-08-03T07:57:23.728Z,33.80
2018-08-03T07:59:52.505Z,34.00
2018-08-03T08:02:20.318Z,34.20
2018-08-03T08:04:48.156Z,34.20
2018-08-03T08:07:16.076Z,34.40
2018-08-03T08:09:43.919Z,34.30
2018-08-03T08:12:11.817Z,34.40
2018-08-03T08:14:39.667Z,34.30
2018-08-03T08:17:07.489Z,34.50
2018-08-03T08:19:35.265Z,34.50
2018-08-03T08:22:03.233Z,34.70
2018-08-03T08:24:30.980Z,34.70
2018-08-03T08:26:58.984Z,34.90
2018-08-03T08:29:26.785Z,35.20
2018-08-03T08:31:54.700Z,35.20
2018-08-03T08:34:22.450Z,35.40
2018-08-03T08:36:50.285Z,35.50
2018-08-03T08:39:18.185Z,35.70
2018-08-03T08:41:45.989Z,35.90
2018-08-03T08:44:13.862Z,36.10
2018-08-03T08:46:42.061Z,36.30
2018-08-03T08:49:16.661Z,36.50
2018-08-03T08:51:52.967Z,36.70
2018-08-03T08:54:27.177Z,36.80
2018-08-03T08:57:01.368Z,36.90
2018-08-03T08:59:36.237Z,36.90
2018-08-03T09:02:11.976Z,37.10
2018-08-03T09:04:47.420Z,37.00
2018-08-03T09:07:22.569Z,37.00
2018-08-03T09:09:57.389Z,36.90
2018-08-03T09:12:31.298Z,36.90
2018-08-03T09:14:59.345Z,37.00
2018-08-03T09:17:33.718Z,37.30
2018-08-03T09:20:07.085Z,37.10
2018-08-03T09:22:42.632Z,37.10
2018-08-03T09:36:41.686Z,36.80
2018-08-03T09:39:10.109Z,36.80
2018-08-03T09:41:38.005Z,36.80
2018-08-03T09:44:18.141Z,37.40
2018-08-03T09:46:46.336Z,37.00
2018-08-03T09:49:20.469Z,36.70
2018-08-03T09:51:49.137Z,36.80
2018-08-03T09:54:16.928Z,36.70
2018-08-03T09:56:44.697Z,36.80
2018-08-03T09:59:12.496Z,36.80
2018-08-03T10:01:40.345Z,36.90
2018-08-03T10:04:08.208Z,37.00
2018-08-03T10:06:36.053Z,36.90
2018-08-03T10:09:05.641Z,36.80
2018-08-03T10:11:33.413Z,36.90
2018-08-03T10:14:06.337Z,37.00
2018-08-03T10:16:41.553Z,37.10
2018-08-03T10:19:16.909Z,37.30
2018-08-03T10:21:52.671Z,37.50
2018-08-03T10:24:26.579Z,37.70
2018-08-03T10:27:01.106Z,37.90
2018-08-03T10:29:35.095Z,37.90
2018-08-03T10:32:09.844Z,38.10
2018-08-03T10:34:43.754Z,38.20
2018-08-03T10:37:17.945Z,38.20
2018-08-03T10:39:51.248Z,38.20
2018-08-03T10:42:25.783Z,38.50
2018-08-03T10:44:59.389Z,38.60
2018-08-03T10:47:33.293Z,38.80
2018-08-03T10:50:07.510Z,38.80
2018-08-03T11:01:22.508Z,39.00
2018-08-03T11:03:50.353Z,39.20
2018-08-03T11:06:24.416Z,39.20
2018-08-03T11:09:09.045Z,39.30
2018-08-03T11:11:36.850Z,39.30
2018-08-03T11:14:04.672Z,39.30
2018-08-03T11:16:32.459Z,39.30
2018-08-03T11:19:00.277Z,39.30
2018-08-03T11:21:38.352Z,39.50
2018-08-03T11:24:06.789Z,39.50
2018-08-03T11:26:34.832Z,39.50
2018-08-03T11:29:02.905Z,39.70
2018-08-03T11:31:30.761Z,39.80
2018-08-03T11:33:58.613Z,39.80
2018-08-03T11:36:26.401Z,40.00
2018-08-03T11:38:54.196Z,40.20
2018-08-03T11:41:28.452Z,40.30
2018-08-03T11:44:02.652Z,40.50
2018-08-03T11:46:36.268Z,40.40
2018-08-03T11:49:04.765Z,40.20
2018-08-03T11:51:32.557Z,40.10
2018-08-03T11:54:00.335Z,40.00
2018-08-03T11:56:28.192Z,40.00
2018-08-03T11:58:55.936Z,40.00
2018-08-03T12:01:23.807Z,40.00
2018-08-03T12:03:51.586Z,40.10
2018-08-03T12:06:19.351Z,40.50
2018-08-03T12:08:47.101Z,40.50
2018-08-03T12:11:14.985Z,40.60
2018-08-03T12:13:43.753Z,40.70
2018-08-03T12:16:11.514Z,40.90
2018-08-03T12:18:39.351Z,41.10
2018-08-03T12:21:07.225Z,41.00
2018-08-03T12:23:35.024Z,41.00
2018-08-03T12:26:02.936Z,41.00
2018-08-03T12:28:30.745Z,41.10
2018-08-03T12:30:58.516Z,41.20
2018-08-03T12:33:26.352Z,41.20
2018-08-03T12:35:54.136Z,41.20
2018-08-03T12:38:21.909Z,41.30
2018-08-03T12:40:49.762Z,41.50
2018-08-03T12:43:17.626Z,41.50
2018-08-03T12:45:45.387Z,41.60
2018-08-03T12:48:13.136Z,41.60
2018-08-03T12:50:40.964Z,41.60
2018-08-03T12:53:08.777Z,41.60
2018-08-03T12:55:36.841Z,41.80
2018-08-03T12:58:05.034Z,41.90
2018-08-03T13:00:33.020Z,41.90
2018-08-03T13:03:02.065Z,41.90
2018-08-03T13:05:30.107Z,42.00
2018-08-03T13:07:58.064Z,42.10
2018-08-03T13:10:25.764Z,42.20
2018-08-03T13:12:53.525Z,42.40
2018-08-03T13:15:21.334Z,42.20
2018-08-03T13:17:49.385Z,42.10
2018-08-03T13:20:17.200Z,42.00
2018-08-03T13:22:45.005Z,42.00
2018-08-03T13:25:12.761Z,41.90
2018-08-03T13:27:40.609Z,41.80
2018-08-03T13:30:08.424Z,41.70
2018-08-03T13:32:36.309Z,41.70
2018-08-03T13:35:04.757Z,41.50
2018-08-03T13:37:32.784Z,41.30
2018-08-03T13:40:00.638Z,41.10
2018-08-03T13:42:28.594Z,40.90
2018-08-03T13:44:56.442Z,40.70
2018-08-03T13:47:24.257Z,40.50
2018-08-03T13:49:52.059Z,40.20
2018-08-03T13:52:19.872Z,39.90
2018-08-03T13:54:47.745Z,39.70
2018-08-03T13:57:15.541Z,39.50
2018-08-03T13:59:43.339Z,39.20
2018-08-03T14:02:21.981Z,39.00
2018-08-03T14:04:49.862Z,38.80
2018-08-03T14:07:27.309Z,38.60
2018-08-03T14:09:55.160Z,38.40
2018-08-03T14:12:22.981Z,38.20
2018-08-03T14:14:50.821Z,38.00
2018-08-03T14:17:18.660Z,37.80
2018-08-03T14:19:46.453Z,37.60
2018-08-03T14:22:14.392Z,37.70
2018-08-03T14:24:43.283Z,37.50
2018-08-03T14:27:11.057Z,37.30
2018-08-03T14:29:38.848Z,37.20
2018-08-03T14:32:06.714Z,37.20
2018-08-03T14:34:34.650Z,37.20
2018-08-03T14:37:02.477Z,37.10
2018-08-03T14:41:58.685Z,36.90
2018-08-03T14:44:26.476Z,37.00
2018-08-03T14:46:54.297Z,37.00
2018-08-03T14:49:22.098Z,37.00
2018-08-03T14:51:49.958Z,37.00
2018-08-03T14:54:17.727Z,37.00
2018-08-03T14:56:45.592Z,37.10
2018-08-03T14:59:13.369Z,37.10
2018-08-03T15:01:41.184Z,37.20
2018-08-03T15:04:09.061Z,37.20
2018-08-03T15:06:36.926Z,37.10
2018-08-03T15:09:08.161Z,37.20
2018-08-03T15:11:35.984Z,37.30
2018-08-03T15:14:03.885Z,37.40
2018-08-03T15:16:31.636Z,37.50
2018-08-03T15:18:59.428Z,37.40
2018-08-03T15:21:27.328Z,37.30
2018-08-03T15:23:55.149Z,37.30
2018-08-03T15:26:22.889Z,37.30
2018-08-03T15:28:50.695Z,37.20
2018-08-03T15:31:18.500Z,37.20
2018-08-03T15:33:46.268Z,37.10
2018-08-03T15:36:14.037Z,37.10
2018-08-03T15:38:41.808Z,37.10
2018-08-03T15:41:09.609Z,37.10
2018-08-03T15:43:37.450Z,37.00
2018-08-03T15:46:05.316Z,37.00
2018-08-03T15:48:40.729Z,37.10
2018-08-03T15:53:39.328Z,37.10
2018-08-03T15:56:07.103Z,37.10
2018-08-03T15:58:34.978Z,37.00
2018-08-03T16:01:02.813Z,36.90
2018-08-03T16:03:44.361Z,36.80
2018-08-03T16:06:12.117Z,36.70
2018-08-03T16:08:39.933Z,36.50
2018-08-03T16:11:13.429Z,36.40
2018-08-03T16:13:41.428Z,36.30
2018-08-03T16:16:09.200Z,36.20
2018-08-03T16:18:37.008Z,36.20
2018-08-03T16:21:04.857Z,36.20
2018-08-03T16:23:32.767Z,36.20
2018-08-03T16:26:00.569Z,36.20
2018-08-03T16:28:28.644Z,36.10
2018-08-03T16:30:56.459Z,36.00
2018-08-03T16:33:24.329Z,36.00
2018-08-03T16:35:52.112Z,35.80
2018-08-03T16:38:19.881Z,35.90
2018-08-03T16:40:51.621Z,35.80
2018-08-03T16:45:53.972Z,35.70
2018-08-03T16:48:21.740Z,35.70
2018-08-03T16:50:49.589Z,35.60
2018-08-03T16:53:17.484Z,35.50
2018-08-03T16:55:45.285Z,35.50
2018-08-03T16:58:13.056Z,35.50
2018-08-03T17:00:41.084Z,35.40
2018-08-03T17:03:09.028Z,35.40
2018-08-03T17:05:36.792Z,35.20
2018-08-03T17:08:04.717Z,35.10
2018-08-03T17:10:32.571Z,35.10
2018-08-03T17:13:00.425Z,35.00
2018-08-03T17:15:28.258Z,34.90
2018-08-03T17:17:56.015Z,34.80
2018-08-03T17:20:23.934Z,34.80
2018-08-03T17:22:51.717Z,34.70
2018-08-03T17:25:19.480Z,34.60
2018-08-03T17:27:47.315Z,34.60
2018-08-03T17:30:15.068Z,34.50
2018-08-03T17:32:42.872Z,34.50
2018-08-03T17:35:10.685Z,34.40
2018-08-03T17:37:38.688Z,34.30
2018-08-03T17:40:06.593Z,34.40
2018-08-03T17:42:34.468Z,34.40
2018-08-03T17:45:09.708Z,34.40
2018-08-03T17:47:53.142Z,34.30
2018-08-03T17:50:21.001Z,34.10
2018-08-03T17:52:48.785Z,34.10
2018-08-03T17:55:16.557Z,34.00
2018-08-03T17:57:44.373Z,33.90
2018-08-03T18:00:12.821Z,33.80
2018-08-03T18:02:40.613Z,33.70
2018-08-03T18:05:08.496Z,33.70
2018-08-03T18:07:36.324Z,33.60
2018-08-03T18:10:04.804Z,33.50
2018-08-03T18:12:32.577Z,33.50
2018-08-03T18:15:00.369Z,33.50
2018-08-03T18:17:28.144Z,33.40
2018-08-03T18:19:55.944Z,33.30
2018-08-03T18:22:23.756Z,33.20
2018-08-03T18:24:51.568Z,33.20
2018-08-03T18:27:19.357Z,33.10
2018-08-03T18:29:47.105Z,33.10
2018-08-03T18:32:14.957Z,33.10
2018-08-03T18:34:42.779Z,33.00
2018-08-03T18:37:10.673Z,32.90
2018-08-03T18:39:38.488Z,32.80
2018-08-03T18:42:06.453Z,32.70
2018-08-03T18:44:34.259Z,32.70
2018-08-03T18:47:02.017Z,32.70
2018-08-03T18:49:29.864Z,32.60
2018-08-03T18:51:57.674Z,32.60
2018-08-03T18:54:25.748Z,32.50
2018-08-03T18:56:53.745Z,32.40
2018-08-03T18:59:21.528Z,32.30
2018-08-03T19:01:49.410Z,32.20
2018-08-03T19:04:17.271Z,32.10
2018-08-03T19:06:45.089Z,32.10
2018-08-03T19:09:12.953Z,32.00
2018-08-03T19:11:40.817Z,31.90
2018-08-03T19:14:08.574Z,31.90
2018-08-03T19:16:36.393Z,31.90
2018-08-03T19:19:10.570Z,31.70
2018-08-03T19:21:45.811Z,31.60
2018-08-03T19:24:23.301Z,31.60
2018-08-03T19:26:58.335Z,31.50
2018-08-03T19:29:32.631Z,31.40
2018-08-03T19:32:08.993Z,31.30
2018-08-03T19:34:44.462Z,31.20
2018-08-03T19:37:19.513Z,31.10
2018-08-03T19:39:53.831Z,31.00
2018-08-03T19:42:37.116Z,30.90
2018-08-03T19:45:05.512Z,30.80
2018-08-03T19:47:33.299Z,30.70
2018-08-03T19:50:01.105Z,30.90
2018-08-03T19:52:29.019Z,30.70
2018-08-03T19:54:56.802Z,30.50
2018-08-03T19:57:24.621Z,30.40
2018-08-03T19:59:52.465Z,30.30
2018-08-03T20:02:20.261Z,30.20
2018-08-03T20:04:48.117Z,30.10
2018-08-03T20:07:17.203Z,30.00
2018-08-03T20:09:45.126Z,29.90
2018-08-03T20:12:12.975Z,29.80
2018-08-03T20:14:40.844Z,29.70
2018-08-03T20:17:08.604Z,29.70
2018-08-03T20:19:36.413Z,29.50
2018-08-03T20:22:06.022Z,29.40
2018-08-03T20:24:33.773Z,29.30
2018-08-03T20:27:01.609Z,29.30
2018-08-03T20:29:29.433Z,29.30
2018-08-03T20:31:57.224Z,29.10
2018-08-03T20:34:24.985Z,29.00
2018-08-03T20:36:52.813Z,28.90
2018-08-03T20:39:20.571Z,28.80
2018-08-03T20:41:48.449Z,28.70
2018-08-03T20:44:16.268Z,28.60
2018-08-03T20:46:56.514Z,28.50
2018-08-03T20:49:24.560Z,28.40
2018-08-03T20:51:52.345Z,28.20
2018-08-03T20:54:20.204Z,28.30
2018-08-03T20:56:48.005Z,28.20
2018-08-03T20:59:15.805Z,28.10
2018-08-03T21:01:43.669Z,28.10
2018-08-03T21:04:11.476Z,28.00
2018-08-03T21:06:39.256Z,28.00
2018-08-03T21:09:09.109Z,27.90
2018-08-03T21:11:36.913Z,27.90
2018-08-03T21:14:05.117Z,27.80
2018-08-03T21:16:32.920Z,27.90
2018-08-03T21:19:01.765Z,27.90
2018-08-03T21:21:29.593Z,27.70
2018-08-03T21:23:57.448Z,27.70
2018-08-03T21:26:25.236Z,27.60
2018-08-03T21:28:53.049Z,27.60
2018-08-03T21:31:20.861Z,27.60
2018-08-03T21:33:48.709Z,27.60
2018-08-03T21:36:16.508Z,27.60
2018-08-03T21:38:44.384Z,27.60
2018-08-03T21:41:12.169Z,27.80
2018-08-03T21:43:39.977Z,28.00
2018-08-03T21:46:07.765Z,27.80
2018-08-03T21:48:35.549Z,27.70
2018-08-03T21:51:03.403Z,27.60
2018-08-03T21:53:31.202Z,27.50
2018-08-03T21:55:58.949Z,27.40
2018-08-03T21:58:26.750Z,27.40
2018-08-03T22:00:54.577Z,27.30
2018-08-03T22:05:56.958Z,27.20
2018-08-03T22:08:24.737Z,27.40
2018-08-03T22:10:52.581Z,27.30
2018-08-03T22:13:20.428Z,27.10
2018-08-03T22:15:48.201Z,27.10
2018-08-03T22:18:15.981Z,26.90
2018-08-03T22:20:43.795Z,26.90
2018-08-03T22:23:11.596Z,26.90
2018-08-03T22:25:39.395Z,26.90
2018-08-03T22:28:07.164Z,26.80
2018-08-03T22:30:35.037Z,26.70
2018-08-03T22:33:02.933Z,26.70
2018-08-03T22:35:30.646Z,26.60
2018-08-03T22:37:58.433Z,26.60
2018-08-03T22:40:26.216Z,26.60
2018-08-03T22:42:54.092Z,26.70
2018-08-03T22:45:22.103Z,26.70
2018-08-03T22:47:49.939Z,26.70
2018-08-03T22:50:17.800Z,26.60
2018-08-03T22:52:45.616Z,26.60
2018-08-03T22:55:13.418Z,26.50
2018-08-03T22:57:41.261Z,26.50
2018-08-03T23:00:09.665Z,26.30
2018-08-03T23:02:37.426Z,26.30
2018-08-03T23:05:05.300Z,26.30
2018-08-03T23:07:33.104Z,26.50
2018-08-03T23:10:06.654Z,26.40
2018-08-03T23:12:42.465Z,26.30
2018-08-03T23:15:10.313Z,26.30
2018-08-03T23:17:38.073Z,26.20
2018-08-03T23:20:06.421Z,26.10
2018-08-03T23:22:34.248Z,26.10
2018-08-03T23:25:02.065Z,26.00
2018-08-03T23:27:29.881Z,25.80
2018-08-03T23:29:57.661Z,25.80
2018-08-03T23:32:25.421Z,25.90
2018-08-03T23:34:53.225Z,25.80
2018-08-03T23:37:20.978Z,25.80
2018-08-03T23:39:48.805Z,25.70
2018-08-03T23:42:16.597Z,25.70
2018-08-03T23:44:44.361Z,25.60
2018-08-03T23:47:12.976Z,25.60
2018-08-03T23:49:40.765Z,25.80
2018-08-03T23:52:08.692Z,25.70
2018-08-03T23:54:36.761Z,25.60
2018-08-03T23:57:04.844Z,25.60
2018-08-03T23:59:32.694Z,25.60
